sensor_id;sensor_type;location;lat;lon;timestamp;temperature;humidity
28524;DHT22;15734;50.904;6.922;2023-12-20T00:01:40;8.20;99.90
28524;DHT22;15734;50.904;6.922;2023-12-20T00:04:06;8.20;99.90
28524;DHT22;15734;50.904;6.922;2023-12-20T00:06:31;8.20;99.90
28524;DHT22;15734;50.904;6.922;2023-12-20T00:08:57;8.20;99.90
28524;DHT22;15734;50.904;6.922;2023-12-20T00:11:25;8.20;99.90
28524;DHT22;15734;50.904;6.922;2023-12-20T00:13:51;8.20;99.90
28524;DHT22;15734;50.904;6.922;2023-12-20T00:16:17;8.30;99.90
28524;DHT22;15734;50.904;6.922;2023-12-20T00:18:42;8.30;99.90
28524;DHT22;15734;50.904;6.922;2023-12-20T00:21:08;8.30;99.90
28524;DHT22;15734;50.904;6.922;2023-12-20T00:23:33;8.20;99.90
28524;DHT22;15734;50.904;6.922;2023-12-20T00:25:59;8.30;99.90
28524;DHT22;15734;50.904;6.922;2023-12-20T00:28:25;8.30;99.90
28524;DHT22;15734;50.904;6.922;2023-12-20T00:30:51;8.30;99.90
28524;DHT22;15734;50.904;6.922;2023-12-20T00:33:16;8.30;99.90
28524;DHT22;15734;50.904;6.922;2023-12-20T00:35:42;8.30;99.90
28524;DHT22;15734;50.904;6.922;2023-12-20T00:38:07;8.30;99.90
28524;DHT22;15734;50.904;6.922;2023-12-20T00:40:34;8.40;99.90
28524;DHT22;15734;50.904;6.922;2023-12-20T00:43:00;8.30;99.90
28524;DHT22;15734;50.904;6.922;2023-12-20T00:45:25;8.30;99.90
28524;DHT22;15734;50.904;6.922;2023-12-20T00:47:51;8.30;99.90
28524;DHT22;15734;50.904;6.922;2023-12-20T00:50:17;8.30;99.90
28524;DHT22;15734;50.904;6.922;2023-12-20T00:52:42;8.30;99.90
28524;DHT22;15734;50.904;6.922;2023-12-20T00:55:08;8.20;99.90
28524;DHT22;15734;50.904;6.922;2023-12-20T00:57:34;8.30;99.90
28524;DHT22;15734;50.904;6.922;2023-12-20T00:59:59;8.30;99.90
28524;DHT22;15734;50.904;6.922;2023-12-20T01:02:25;8.20;99.90
28524;DHT22;15734;50.904;6.922;2023-12-20T01:04:50;8.20;99.90
28524;DHT22;15734;50.904;6.922;2023-12-20T01:07:16;8.20;99.90
28524;DHT22;15734;50.904;6.922;2023-12-20T01:09:41;8.10;99.90
28524;DHT22;15734;50.904;6.922;2023-12-20T01:12:07;8.10;99.90
28524;DHT22;15734;50.904;6.922;2023-12-20T01:14:32;8.10;99.90
28524;DHT22;15734;50.904;6.922;2023-12-20T01:16:58;8.10;99.90
28524;DHT22;15734;50.904;6.922;2023-12-20T01:19:24;8.10;99.90
28524;DHT22;15734;50.904;6.922;2023-12-20T01:21:50;8.00;99.90
28524;DHT22;15734;50.904;6.922;2023-12-20T01:24:15;8.00;99.90
28524;DHT22;15734;50.904;6.922;2023-12-20T01:26:41;8.00;99.90
28524;DHT22;15734;50.904;6.922;2023-12-20T01:29:06;7.90;99.90
28524;DHT22;15734;50.904;6.922;2023-12-20T01:31:32;7.90;99.90
28524;DHT22;15734;50.904;6.922;2023-12-20T01:33:57;7.90;99.90
28524;DHT22;15734;50.904;6.922;2023-12-20T01:36:23;7.90;99.90
28524;DHT22;15734;50.904;6.922;2023-12-20T01:38:48;7.90;99.90
28524;DHT22;15734;50.904;6.922;2023-12-20T01:41:14;7.90;99.90
28524;DHT22;15734;50.904;6.922;2023-12-20T01:43:40;7.90;99.90
28524;DHT22;15734;50.904;6.922;2023-12-20T01:46:05;7.90;99.90
28524;DHT22;15734;50.904;6.922;2023-12-20T01:48:31;7.90;99.90
28524;DHT22;15734;50.904;6.922;2023-12-20T01:50:59;7.80;99.90
28524;DHT22;15734;50.904;6.922;2023-12-20T01:53:25;7.80;99.90
28524;DHT22;15734;50.904;6.922;2023-12-20T01:55:52;7.70;99.90
28524;DHT22;15734;50.904;6.922;2023-12-20T01:58:19;7.70;99.90
28524;DHT22;15734;50.904;6.922;2023-12-20T02:00:45;7.60;99.90
28524;DHT22;15734;50.904;6.922;2023-12-20T02:03:11;7.50;99.90
28524;DHT22;15734;50.904;6.922;2023-12-20T02:05:38;7.50;99.90
28524;DHT22;15734;50.904;6.922;2023-12-20T02:08:04;7.40;99.90
28524;DHT22;15734;50.904;6.922;2023-12-20T02:10:31;7.40;99.90
28524;DHT22;15734;50.904;6.922;2023-12-20T02:12:56;7.30;99.90
28524;DHT22;15734;50.904;6.922;2023-12-20T02:15:22;7.30;99.90
28524;DHT22;15734;50.904;6.922;2023-12-20T02:17:48;7.20;99.90
28524;DHT22;15734;50.904;6.922;2023-12-20T02:20:14;7.10;99.90
28524;DHT22;15734;50.904;6.922;2023-12-20T02:22:39;7.10;99.90
28524;DHT22;15734;50.904;6.922;2023-12-20T02:25:05;7.10;99.90
28524;DHT22;15734;50.904;6.922;2023-12-20T02:27:31;7.00;99.90
28524;DHT22;15734;50.904;6.922;2023-12-20T02:29:57;6.90;99.90
28524;DHT22;15734;50.904;6.922;2023-12-20T02:32:24;6.90;99.90
28524;DHT22;15734;50.904;6.922;2023-12-20T02:34:51;6.90;99.90
28524;DHT22;15734;50.904;6.922;2023-12-20T02:37:17;6.90;99.90
28524;DHT22;15734;50.904;6.922;2023-12-20T02:39:42;6.90;99.90
28524;DHT22;15734;50.904;6.922;2023-12-20T02:42:08;6.80;99.90
28524;DHT22;15734;50.904;6.922;2023-12-20T02:44:33;6.80;99.90
28524;DHT22;15734;50.904;6.922;2023-12-20T02:46:59;6.80;99.90
28524;DHT22;15734;50.904;6.922;2023-12-20T02:49:24;6.80;99.90
28524;DHT22;15734;50.904;6.922;2023-12-20T02:51:50;6.70;99.90
28524;DHT22;15734;50.904;6.922;2023-12-20T02:54:15;6.70;99.90
28524;DHT22;15734;50.904;6.922;2023-12-20T02:56:41;6.60;99.90
28524;DHT22;15734;50.904;6.922;2023-12-20T02:59:07;6.70;99.90
28524;DHT22;15734;50.904;6.922;2023-12-20T03:01:34;6.60;99.90
28524;DHT22;15734;50.904;6.922;2023-12-20T03:04:00;6.60;99.90
28524;DHT22;15734;50.904;6.922;2023-12-20T03:06:25;6.70;99.90
28524;DHT22;15734;50.904;6.922;2023-12-20T03:08:51;6.60;99.90
28524;DHT22;15734;50.904;6.922;2023-12-20T03:11:16;6.60;99.90
28524;DHT22;15734;50.904;6.922;2023-12-20T03:13:42;6.60;99.90
28524;DHT22;15734;50.904;6.922;2023-12-20T03:16:11;6.60;99.90
28524;DHT22;15734;50.904;6.922;2023-12-20T03:18:37;6.60;99.90
28524;DHT22;15734;50.904;6.922;2023-12-20T03:21:03;6.70;99.90
28524;DHT22;15734;50.904;6.922;2023-12-20T03:23:29;6.70;99.90
28524;DHT22;15734;50.904;6.922;2023-12-20T03:25:56;6.70;99.90
28524;DHT22;15734;50.904;6.922;2023-12-20T03:28:22;6.70;99.90
28524;DHT22;15734;50.904;6.922;2023-12-20T03:30:48;6.70;99.90
28524;DHT22;15734;50.904;6.922;2023-12-20T03:33:14;6.80;99.90
28524;DHT22;15734;50.904;6.922;2023-12-20T03:35:39;6.80;99.90
28524;DHT22;15734;50.904;6.922;2023-12-20T03:38:05;6.80;99.90
28524;DHT22;15734;50.904;6.922;2023-12-20T03:40:30;6.80;99.90
28524;DHT22;15734;50.904;6.922;2023-12-20T03:42:56;6.80;99.90
28524;DHT22;15734;50.904;6.922;2023-12-20T03:45:21;6.80;99.90
28524;DHT22;15734;50.904;6.922;2023-12-20T03:47:47;6.90;99.90
28524;DHT22;15734;50.904;6.922;2023-12-20T03:50:13;6.90;99.90
28524;DHT22;15734;50.904;6.922;2023-12-20T03:52:38;6.90;99.90
28524;DHT22;15734;50.904;6.922;2023-12-20T03:55:04;6.90;99.90
28524;DHT22;15734;50.904;6.922;2023-12-20T03:57:30;6.90;99.90
28524;DHT22;15734;50.904;6.922;2023-12-20T03:59:55;6.80;99.90
28524;DHT22;15734;50.904;6.922;2023-12-20T04:02:21;6.90;99.90
28524;DHT22;15734;50.904;6.922;2023-12-20T04:04:46;6.90;99.90
28524;DHT22;15734;50.904;6.922;2023-12-20T04:07:12;6.90;99.90
28524;DHT22;15734;50.904;6.922;2023-12-20T04:09:37;6.90;99.90
28524;DHT22;15734;50.904;6.922;2023-12-20T04:12:03;6.90;99.90
28524;DHT22;15734;50.904;6.922;2023-12-20T04:14:30;6.90;99.90
28524;DHT22;15734;50.904;6.922;2023-12-20T04:16:55;6.90;99.90
28524;DHT22;15734;50.904;6.922;2023-12-20T04:19:21;6.90;99.90
28524;DHT22;15734;50.904;6.922;2023-12-20T04:21:46;6.90;99.90
28524;DHT22;15734;50.904;6.922;2023-12-20T04:24:12;6.90;99.90
28524;DHT22;15734;50.904;6.922;2023-12-20T04:26:37;6.90;99.90
28524;DHT22;15734;50.904;6.922;2023-12-20T04:29:03;6.90;99.90
28524;DHT22;15734;50.904;6.922;2023-12-20T04:31:28;6.90;99.90
28524;DHT22;15734;50.904;6.922;2023-12-20T04:33:54;6.80;99.90
28524;DHT22;15734;50.904;6.922;2023-12-20T04:36:19;6.80;99.90
28524;DHT22;15734;50.904;6.922;2023-12-20T04:38:45;6.80;99.90
28524;DHT22;15734;50.904;6.922;2023-12-20T04:41:10;6.80;99.90
28524;DHT22;15734;50.904;6.922;2023-12-20T04:43:36;6.80;99.90
28524;DHT22;15734;50.904;6.922;2023-12-20T04:46:01;6.80;99.90
28524;DHT22;15734;50.904;6.922;2023-12-20T04:48:27;6.70;99.90
28524;DHT22;15734;50.904;6.922;2023-12-20T04:50:53;6.80;99.90
28524;DHT22;15734;50.904;6.922;2023-12-20T04:53:18;6.70;99.90
28524;DHT22;15734;50.904;6.922;2023-12-20T04:55:44;6.70;99.90
28524;DHT22;15734;50.904;6.922;2023-12-20T04:58:09;6.70;99.90
28524;DHT22;15734;50.904;6.922;2023-12-20T05:00:35;6.70;99.90
28524;DHT22;15734;50.904;6.922;2023-12-20T05:03:00;6.70;99.90
28524;DHT22;15734;50.904;6.922;2023-12-20T05:05:26;6.70;99.90
28524;DHT22;15734;50.904;6.922;2023-12-20T05:07:51;6.70;99.90
28524;DHT22;15734;50.904;6.922;2023-12-20T05:10:17;6.70;99.90
28524;DHT22;15734;50.904;6.922;2023-12-20T05:12:43;6.60;99.90
28524;DHT22;15734;50.904;6.922;2023-12-20T05:15:08;6.60;99.90
28524;DHT22;15734;50.904;6.922;2023-12-20T05:17:34;6.50;99.90
28524;DHT22;15734;50.904;6.922;2023-12-20T05:20:00;6.50;99.90
28524;DHT22;15734;50.904;6.922;2023-12-20T05:22:25;6.50;99.90
28524;DHT22;15734;50.904;6.922;2023-12-20T05:24:52;6.50;99.90
28524;DHT22;15734;50.904;6.922;2023-12-20T05:27:18;6.50;99.90
28524;DHT22;15734;50.904;6.922;2023-12-20T05:29:43;6.60;99.90
28524;DHT22;15734;50.904;6.922;2023-12-20T05:32:09;6.50;99.90
28524;DHT22;15734;50.904;6.922;2023-12-20T05:34:35;6.50;99.90
28524;DHT22;15734;50.904;6.922;2023-12-20T05:37:00;6.70;99.90
28524;DHT22;15734;50.904;6.922;2023-12-20T05:39:27;6.60;99.90
28524;DHT22;15734;50.904;6.922;2023-12-20T05:41:52;6.60;99.90
28524;DHT22;15734;50.904;6.922;2023-12-20T05:44:18;6.50;99.90
28524;DHT22;15734;50.904;6.922;2023-12-20T05:46:44;6.50;99.90
28524;DHT22;15734;50.904;6.922;2023-12-20T05:49:09;6.60;99.90
28524;DHT22;15734;50.904;6.922;2023-12-20T05:51:36;6.60;99.90
28524;DHT22;15734;50.904;6.922;2023-12-20T05:54:01;6.60;99.90
28524;DHT22;15734;50.904;6.922;2023-12-20T05:56:27;6.60;99.90
28524;DHT22;15734;50.904;6.922;2023-12-20T05:58:52;6.60;99.90
28524;DHT22;15734;50.904;6.922;2023-12-20T06:01:18;6.60;99.90
28524;DHT22;15734;50.904;6.922;2023-12-20T06:03:43;6.70;99.90
28524;DHT22;15734;50.904;6.922;2023-12-20T06:06:09;6.70;99.90
28524;DHT22;15734;50.904;6.922;2023-12-20T06:08:36;6.60;99.90
28524;DHT22;15734;50.904;6.922;2023-12-20T06:11:01;6.70;99.90
28524;DHT22;15734;50.904;6.922;2023-12-20T06:13:27;6.70;99.90
28524;DHT22;15734;50.904;6.922;2023-12-20T06:15:54;6.70;99.90
28524;DHT22;15734;50.904;6.922;2023-12-20T06:18:20;6.70;99.90
28524;DHT22;15734;50.904;6.922;2023-12-20T06:20:46;6.70;99.90
28524;DHT22;15734;50.904;6.922;2023-12-20T06:23:11;6.70;99.90
28524;DHT22;15734;50.904;6.922;2023-12-20T06:25:37;6.70;99.90
28524;DHT22;15734;50.904;6.922;2023-12-20T06:28:03;6.70;99.90
28524;DHT22;15734;50.904;6.922;2023-12-20T06:30:28;6.80;99.90
28524;DHT22;15734;50.904;6.922;2023-12-20T06:32:54;6.80;99.90
28524;DHT22;15734;50.904;6.922;2023-12-20T06:35:20;6.80;99.90
28524;DHT22;15734;50.904;6.922;2023-12-20T06:37:46;6.80;99.90
28524;DHT22;15734;50.904;6.922;2023-12-20T06:40:11;6.80;99.90
28524;DHT22;15734;50.904;6.922;2023-12-20T06:42:37;6.80;99.90
28524;DHT22;15734;50.904;6.922;2023-12-20T06:45:03;6.80;99.90
28524;DHT22;15734;50.904;6.922;2023-12-20T06:47:28;6.80;99.90
28524;DHT22;15734;50.904;6.922;2023-12-20T06:49:54;6.90;99.90
28524;DHT22;15734;50.904;6.922;2023-12-20T06:52:19;6.90;99.90
28524;DHT22;15734;50.904;6.922;2023-12-20T06:54:45;6.80;99.90
28524;DHT22;15734;50.904;6.922;2023-12-20T06:57:11;6.80;99.90
28524;DHT22;15734;50.904;6.922;2023-12-20T06:59:40;6.90;99.90
28524;DHT22;15734;50.904;6.922;2023-12-20T07:02:06;6.90;99.90
28524;DHT22;15734;50.904;6.922;2023-12-20T07:04:32;6.90;99.90
28524;DHT22;15734;50.904;6.922;2023-12-20T07:06:57;6.90;99.90
28524;DHT22;15734;50.904;6.922;2023-12-20T07:09:26;6.90;99.90
28524;DHT22;15734;50.904;6.922;2023-12-20T07:11:51;7.00;99.90
28524;DHT22;15734;50.904;6.922;2023-12-20T07:14:17;6.90;99.90
28524;DHT22;15734;50.904;6.922;2023-12-20T07:16:42;6.90;99.90
28524;DHT22;15734;50.904;6.922;2023-12-20T07:19:08;6.90;99.90
28524;DHT22;15734;50.904;6.922;2023-12-20T07:21:33;7.00;99.90
28524;DHT22;15734;50.904;6.922;2023-12-20T07:23:59;7.00;99.90
28524;DHT22;15734;50.904;6.922;2023-12-20T07:26:25;6.90;99.90
28524;DHT22;15734;50.904;6.922;2023-12-20T07:28:50;7.00;99.90
28524;DHT22;15734;50.904;6.922;2023-12-20T07:31:16;7.00;99.90
28524;DHT22;15734;50.904;6.922;2023-12-20T07:33:42;7.00;99.90
28524;DHT22;15734;50.904;6.922;2023-12-20T07:36:07;7.00;99.90
28524;DHT22;15734;50.904;6.922;2023-12-20T07:38:33;7.00;99.90
28524;DHT22;15734;50.904;6.922;2023-12-20T07:40:59;7.00;99.90
28524;DHT22;15734;50.904;6.922;2023-12-20T07:43:24;7.10;99.90
28524;DHT22;15734;50.904;6.922;2023-12-20T07:45:50;7.10;99.90
28524;DHT22;15734;50.904;6.922;2023-12-20T07:48:15;7.10;99.90
28524;DHT22;15734;50.904;6.922;2023-12-20T07:50:41;7.10;99.90
28524;DHT22;15734;50.904;6.922;2023-12-20T07:53:07;7.10;99.90
28524;DHT22;15734;50.904;6.922;2023-12-20T07:55:33;7.10;99.90
28524;DHT22;15734;50.904;6.922;2023-12-20T07:58:00;7.10;99.90
28524;DHT22;15734;50.904;6.922;2023-12-20T08:00:25;7.10;99.90
28524;DHT22;15734;50.904;6.922;2023-12-20T08:02:51;7.10;99.90
28524;DHT22;15734;50.904;6.922;2023-12-20T08:05:16;7.10;99.90
28524;DHT22;15734;50.904;6.922;2023-12-20T08:07:42;7.10;99.90
28524;DHT22;15734;50.904;6.922;2023-12-20T08:10:08;7.10;99.90
28524;DHT22;15734;50.904;6.922;2023-12-20T08:12:33;7.10;99.90
28524;DHT22;15734;50.904;6.922;2023-12-20T08:14:59;7.10;99.90
28524;DHT22;15734;50.904;6.922;2023-12-20T08:17:25;7.10;99.90
28524;DHT22;15734;50.904;6.922;2023-12-20T08:19:51;7.10;99.90
28524;DHT22;15734;50.904;6.922;2023-12-20T08:22:16;7.10;99.90
28524;DHT22;15734;50.904;6.922;2023-12-20T08:24:42;7.00;99.90
28524;DHT22;15734;50.904;6.922;2023-12-20T08:27:07;7.00;99.90
28524;DHT22;15734;50.904;6.922;2023-12-20T08:29:34;7.00;99.90
28524;DHT22;15734;50.904;6.922;2023-12-20T08:32:00;7.00;99.90
28524;DHT22;15734;50.904;6.922;2023-12-20T08:34:26;7.00;99.90
28524;DHT22;15734;50.904;6.922;2023-12-20T08:36:51;7.00;99.90
28524;DHT22;15734;50.904;6.922;2023-12-20T08:39:17;7.00;99.90
28524;DHT22;15734;50.904;6.922;2023-12-20T08:41:43;7.00;99.90
28524;DHT22;15734;50.904;6.922;2023-12-20T08:44:09;7.10;99.90
28524;DHT22;15734;50.904;6.922;2023-12-20T08:46:35;7.10;99.90
28524;DHT22;15734;50.904;6.922;2023-12-20T08:49:01;7.10;99.90
28524;DHT22;15734;50.904;6.922;2023-12-20T08:51:26;7.10;99.90
28524;DHT22;15734;50.904;6.922;2023-12-20T08:53:53;7.10;99.90
28524;DHT22;15734;50.904;6.922;2023-12-20T08:56:19;7.10;99.90
28524;DHT22;15734;50.904;6.922;2023-12-20T08:58:47;7.20;99.90
28524;DHT22;15734;50.904;6.922;2023-12-20T09:01:14;7.20;99.90
28524;DHT22;15734;50.904;6.922;2023-12-20T09:03:40;7.20;99.90
28524;DHT22;15734;50.904;6.922;2023-12-20T09:06:06;7.30;99.90
28524;DHT22;15734;50.904;6.922;2023-12-20T09:08:31;7.30;99.90
28524;DHT22;15734;50.904;6.922;2023-12-20T09:10:57;7.30;99.90
28524;DHT22;15734;50.904;6.922;2023-12-20T09:13:22;7.30;99.90
28524;DHT22;15734;50.904;6.922;2023-12-20T09:15:54;7.30;99.90
28524;DHT22;15734;50.904;6.922;2023-12-20T09:18:20;7.40;99.90
28524;DHT22;15734;50.904;6.922;2023-12-20T09:20:45;7.40;99.90
28524;DHT22;15734;50.904;6.922;2023-12-20T09:23:11;7.40;99.90
28524;DHT22;15734;50.904;6.922;2023-12-20T09:25:37;7.40;99.90
28524;DHT22;15734;50.904;6.922;2023-12-20T09:28:02;7.30;99.90
28524;DHT22;15734;50.904;6.922;2023-12-20T09:30:28;7.30;99.90
28524;DHT22;15734;50.904;6.922;2023-12-20T09:32:54;7.40;99.90
28524;DHT22;15734;50.904;6.922;2023-12-20T09:35:20;7.40;99.90
28524;DHT22;15734;50.904;6.922;2023-12-20T09:37:46;7.40;99.90
28524;DHT22;15734;50.904;6.922;2023-12-20T09:40:13;7.40;99.90
28524;DHT22;15734;50.904;6.922;2023-12-20T09:42:55;7.40;99.90
28524;DHT22;15734;50.904;6.922;2023-12-20T09:45:22;7.40;99.90
28524;DHT22;15734;50.904;6.922;2023-12-20T09:47:54;7.40;99.90
28524;DHT22;15734;50.904;6.922;2023-12-20T09:50:21;7.40;99.90
28524;DHT22;15734;50.904;6.922;2023-12-20T09:52:51;7.40;99.90
28524;DHT22;15734;50.904;6.922;2023-12-20T09:55:18;7.40;99.90
28524;DHT22;15734;50.904;6.922;2023-12-20T09:57:45;7.50;99.90
28524;DHT22;15734;50.904;6.922;2023-12-20T10:00:11;7.50;99.90
28524;DHT22;15734;50.904;6.922;2023-12-20T10:02:39;7.50;99.90
28524;DHT22;15734;50.904;6.922;2023-12-20T10:05:08;7.50;99.90
28524;DHT22;15734;50.904;6.922;2023-12-20T10:07:35;7.50;99.90
28524;DHT22;15734;50.904;6.922;2023-12-20T10:10:02;7.50;99.90
28524;DHT22;15734;50.904;6.922;2023-12-20T10:12:28;7.50;99.90
28524;DHT22;15734;50.904;6.922;2023-12-20T10:14:53;7.50;99.90
28524;DHT22;15734;50.904;6.922;2023-12-20T10:17:19;7.60;99.90
28524;DHT22;15734;50.904;6.922;2023-12-20T10:19:46;7.60;99.90
28524;DHT22;15734;50.904;6.922;2023-12-20T10:22:12;7.60;99.90
28524;DHT22;15734;50.904;6.922;2023-12-20T10:24:37;7.60;99.90
28524;DHT22;15734;50.904;6.922;2023-12-20T10:27:07;7.60;99.90
28524;DHT22;15734;50.904;6.922;2023-12-20T10:29:34;7.60;99.90
28524;DHT22;15734;50.904;6.922;2023-12-20T10:34:49;7.70;99.90
28524;DHT22;15734;50.904;6.922;2023-12-20T10:37:14;7.70;99.90
28524;DHT22;15734;50.904;6.922;2023-12-20T10:39:42;7.70;99.90
28524;DHT22;15734;50.904;6.922;2023-12-20T10:42:09;7.70;99.90
28524;DHT22;15734;50.904;6.922;2023-12-20T10:44:36;7.70;99.90
28524;DHT22;15734;50.904;6.922;2023-12-20T10:47:03;7.80;99.90
28524;DHT22;15734;50.904;6.922;2023-12-20T10:49:30;7.80;99.90
28524;DHT22;15734;50.904;6.922;2023-12-20T10:51:57;7.80;99.90
28524;DHT22;15734;50.904;6.922;2023-12-20T10:54:25;7.70;99.90
28524;DHT22;15734;50.904;6.922;2023-12-20T10:56:52;7.80;99.90
28524;DHT22;15734;50.904;6.922;2023-12-20T10:59:19;7.80;99.90
28524;DHT22;15734;50.904;6.922;2023-12-20T11:01:48;7.80;99.90
28524;DHT22;15734;50.904;6.922;2023-12-20T11:04:20;7.80;99.90
28524;DHT22;15734;50.904;6.922;2023-12-20T11:06:53;7.80;99.90
28524;DHT22;15734;50.904;6.922;2023-12-20T11:09:25;7.80;99.90
28524;DHT22;15734;50.904;6.922;2023-12-20T11:12:13;7.80;99.90
28524;DHT22;15734;50.904;6.922;2023-12-20T11:14:59;7.90;99.90
28524;DHT22;15734;50.904;6.922;2023-12-20T11:17:29;7.90;99.90
28524;DHT22;15734;50.904;6.922;2023-12-20T11:22:24;7.90;99.90
28524;DHT22;15734;50.904;6.922;2023-12-20T11:24:51;7.90;99.90
28524;DHT22;15734;50.904;6.922;2023-12-20T11:27:18;7.90;99.90
28524;DHT22;15734;50.904;6.922;2023-12-20T11:29:51;8.00;99.90
28524;DHT22;15734;50.904;6.922;2023-12-20T11:37:37;8.00;99.90
28524;DHT22;15734;50.904;6.922;2023-12-20T11:40:05;7.90;99.90
28524;DHT22;15734;50.904;6.922;2023-12-20T11:42:33;7.90;99.90
28524;DHT22;15734;50.904;6.922;2023-12-20T11:45:01;8.00;99.90
28524;DHT22;15734;50.904;6.922;2023-12-20T11:47:29;8.00;99.90
28524;DHT22;15734;50.904;6.922;2023-12-20T11:49:55;8.10;99.90
28524;DHT22;15734;50.904;6.922;2023-12-20T11:52:21;8.10;99.90
28524;DHT22;15734;50.904;6.922;2023-12-20T11:54:47;8.10;99.90
28524;DHT22;15734;50.904;6.922;2023-12-20T11:57:13;8.00;99.90
28524;DHT22;15734;50.904;6.922;2023-12-20T11:59:39;8.00;99.90
28524;DHT22;15734;50.904;6.922;2023-12-20T12:02:05;8.00;99.90
28524;DHT22;15734;50.904;6.922;2023-12-20T12:04:30;8.10;99.90
28524;DHT22;15734;50.904;6.922;2023-12-20T12:06:56;8.00;99.90
28524;DHT22;15734;50.904;6.922;2023-12-20T12:09:21;8.00;99.90
28524;DHT22;15734;50.904;6.922;2023-12-20T12:11:47;8.00;99.90
28524;DHT22;15734;50.904;6.922;2023-12-20T12:14:14;8.00;99.90
28524;DHT22;15734;50.904;6.922;2023-12-20T12:16:41;8.00;99.90
28524;DHT22;15734;50.904;6.922;2023-12-20T12:19:07;8.00;99.90
28524;DHT22;15734;50.904;6.922;2023-12-20T12:21:33;8.00;99.90
28524;DHT22;15734;50.904;6.922;2023-12-20T12:24:09;8.00;99.90
28524;DHT22;15734;50.904;6.922;2023-12-20T12:26:35;8.00;99.90
28524;DHT22;15734;50.904;6.922;2023-12-20T12:29:00;8.00;99.90
28524;DHT22;15734;50.904;6.922;2023-12-20T12:31:26;8.00;99.90
28524;DHT22;15734;50.904;6.922;2023-12-20T12:33:52;8.00;99.90
28524;DHT22;15734;50.904;6.922;2023-12-20T12:36:17;8.00;99.90
28524;DHT22;15734;50.904;6.922;2023-12-20T12:38:43;8.10;99.90
28524;DHT22;15734;50.904;6.922;2023-12-20T12:41:09;8.10;99.90
28524;DHT22;15734;50.904;6.922;2023-12-20T12:43:37;8.10;99.90
28524;DHT22;15734;50.904;6.922;2023-12-20T12:46:03;8.00;99.90
28524;DHT22;15734;50.904;6.922;2023-12-20T12:48:29;8.00;99.90
28524;DHT22;15734;50.904;6.922;2023-12-20T12:50:54;8.00;99.90
28524;DHT22;15734;50.904;6.922;2023-12-20T12:53:24;8.00;99.90
28524;DHT22;15734;50.904;6.922;2023-12-20T12:55:50;8.00;99.90
28524;DHT22;15734;50.904;6.922;2023-12-20T12:58:15;8.10;99.90
28524;DHT22;15734;50.904;6.922;2023-12-20T13:00:41;8.10;99.90
28524;DHT22;15734;50.904;6.922;2023-12-20T13:03:07;8.00;99.90
28524;DHT22;15734;50.904;6.922;2023-12-20T13:05:33;8.00;99.90
28524;DHT22;15734;50.904;6.922;2023-12-20T13:07:59;7.90;99.90
28524;DHT22;15734;50.904;6.922;2023-12-20T13:10:24;8.00;99.90
28524;DHT22;15734;50.904;6.922;2023-12-20T13:12:50;7.90;99.90
28524;DHT22;15734;50.904;6.922;2023-12-20T13:15:16;7.80;99.90
28524;DHT22;15734;50.904;6.922;2023-12-20T13:17:42;7.80;99.90
28524;DHT22;15734;50.904;6.922;2023-12-20T13:20:07;7.80;99.90
28524;DHT22;15734;50.904;6.922;2023-12-20T13:22:33;7.80;99.90
28524;DHT22;15734;50.904;6.922;2023-12-20T13:24:58;7.80;99.90
28524;DHT22;15734;50.904;6.922;2023-12-20T13:27:24;7.80;99.90
28524;DHT22;15734;50.904;6.922;2023-12-20T13:29:49;7.80;99.90
28524;DHT22;15734;50.904;6.922;2023-12-20T13:32:15;7.80;99.90
28524;DHT22;15734;50.904;6.922;2023-12-20T13:34:41;7.80;99.90
28524;DHT22;15734;50.904;6.922;2023-12-20T13:37:07;7.80;99.90
28524;DHT22;15734;50.904;6.922;2023-12-20T13:39:33;7.90;99.90
28524;DHT22;15734;50.904;6.922;2023-12-20T13:41:58;7.90;99.90
28524;DHT22;15734;50.904;6.922;2023-12-20T13:44:24;7.90;99.90
28524;DHT22;15734;50.904;6.922;2023-12-20T13:46:50;8.00;99.90
28524;DHT22;15734;50.904;6.922;2023-12-20T13:49:15;8.00;99.90
28524;DHT22;15734;50.904;6.922;2023-12-20T13:51:41;8.10;99.90
28524;DHT22;15734;50.904;6.922;2023-12-20T13:54:06;8.10;99.90
28524;DHT22;15734;50.904;6.922;2023-12-20T13:56:32;8.10;99.90
28524;DHT22;15734;50.904;6.922;2023-12-20T13:58:58;8.10;99.90
28524;DHT22;15734;50.904;6.922;2023-12-20T14:01:25;8.10;99.90
28524;DHT22;15734;50.904;6.922;2023-12-20T14:03:52;8.10;99.90
28524;DHT22;15734;50.904;6.922;2023-12-20T14:06:17;8.10;99.90
28524;DHT22;15734;50.904;6.922;2023-12-20T14:08:43;8.10;99.90
28524;DHT22;15734;50.904;6.922;2023-12-20T14:11:09;8.10;99.90
28524;DHT22;15734;50.904;6.922;2023-12-20T14:13:34;8.00;99.90
28524;DHT22;15734;50.904;6.922;2023-12-20T14:16:00;8.10;99.90
28524;DHT22;15734;50.904;6.922;2023-12-20T14:18:27;8.10;99.90
28524;DHT22;15734;50.904;6.922;2023-12-20T14:20:53;8.10;99.90
28524;DHT22;15734;50.904;6.922;2023-12-20T14:23:19;8.10;99.90
28524;DHT22;15734;50.904;6.922;2023-12-20T14:25:44;8.10;99.90
28524;DHT22;15734;50.904;6.922;2023-12-20T14:28:10;8.20;99.90
28524;DHT22;15734;50.904;6.922;2023-12-20T14:30:37;8.20;99.90
28524;DHT22;15734;50.904;6.922;2023-12-20T14:33:03;8.30;99.90
28524;DHT22;15734;50.904;6.922;2023-12-20T14:35:29;8.30;99.90
28524;DHT22;15734;50.904;6.922;2023-12-20T14:37:55;8.30;99.90
28524;DHT22;15734;50.904;6.922;2023-12-20T14:40:20;8.30;99.90
28524;DHT22;15734;50.904;6.922;2023-12-20T14:42:46;8.30;99.90
28524;DHT22;15734;50.904;6.922;2023-12-20T14:45:12;8.30;99.90
28524;DHT22;15734;50.904;6.922;2023-12-20T14:47:39;8.30;99.90
28524;DHT22;15734;50.904;6.922;2023-12-20T14:50:06;8.30;99.90
28524;DHT22;15734;50.904;6.922;2023-12-20T14:52:32;8.30;99.90
28524;DHT22;15734;50.904;6.922;2023-12-20T14:55:02;8.40;99.90
28524;DHT22;15734;50.904;6.922;2023-12-20T14:57:28;8.40;99.90
28524;DHT22;15734;50.904;6.922;2023-12-20T14:59:55;8.40;99.90
28524;DHT22;15734;50.904;6.922;2023-12-20T15:02:20;8.40;99.90
28524;DHT22;15734;50.904;6.922;2023-12-20T15:04:46;8.40;99.90
28524;DHT22;15734;50.904;6.922;2023-12-20T15:07:11;8.40;99.90
28524;DHT22;15734;50.904;6.922;2023-12-20T15:09:37;8.40;99.90
28524;DHT22;15734;50.904;6.922;2023-12-20T15:12:03;8.40;99.90
28524;DHT22;15734;50.904;6.922;2023-12-20T15:14:30;8.40;99.90
28524;DHT22;15734;50.904;6.922;2023-12-20T15:16:56;8.40;99.90
28524;DHT22;15734;50.904;6.922;2023-12-20T15:19:21;8.40;99.90
28524;DHT22;15734;50.904;6.922;2023-12-20T15:21:47;8.40;99.90
28524;DHT22;15734;50.904;6.922;2023-12-20T15:24:13;8.40;99.90
28524;DHT22;15734;50.904;6.922;2023-12-20T15:26:40;8.40;99.90
28524;DHT22;15734;50.904;6.922;2023-12-20T15:29:06;8.40;99.90
28524;DHT22;15734;50.904;6.922;2023-12-20T15:31:32;8.40;99.90
28524;DHT22;15734;50.904;6.922;2023-12-20T15:33:59;8.30;99.90
28524;DHT22;15734;50.904;6.922;2023-12-20T15:36:24;8.40;99.90
28524;DHT22;15734;50.904;6.922;2023-12-20T15:38:51;8.30;99.90
28524;DHT22;15734;50.904;6.922;2023-12-20T15:41:21;8.30;99.90
28524;DHT22;15734;50.904;6.922;2023-12-20T15:43:47;8.30;99.90
28524;DHT22;15734;50.904;6.922;2023-12-20T15:46:13;8.30;99.90
28524;DHT22;15734;50.904;6.922;2023-12-20T15:48:38;8.30;99.90